Time;durP1;ratioP1;P1;durP2;ratioP2;P2;SDS_P1;SDS_P2;PMS_P1;PMS_P2;Temp;Humidity;BMP_temperature;BMP_pressure;BME280_temperature;BME280_humidity;BME280_pressure;Samples;Min_cycle;Max_cycle;Signal;HPM_P1;HPM_P2
2021/11/05 00:04:18;;;;;;;0.20;0.10;;;11.30;99.90;;;;;;20423570;29;20650;-70
2021/11/05 00:14:22;;;;;;;0.20;0.10;;;11.10;99.90;;;;;;20422939;29;20244;-70
2021/11/05 00:24:27;;;;;;;0.27;0.20;;;10.90;99.90;;;;;;20421972;29;20304;-69
2021/11/05 00:34:31;;;;;;;0.20;0.10;;;10.80;99.90;;;;;;20421142;29;20659;-70
2021/11/05 00:44:36;;;;;;;0.20;0.10;;;10.60;99.90;;;;;;20403944;29;20229;-70
2021/11/05 00:54:45;;;;;;;0.20;0.10;;;10.50;99.90;;;;;;20419646;29;20215;-69
2021/11/05 01:04:50;;;;;;;0.20;0.10;;;10.50;99.90;;;;;;20413853;23;20261;-75
2021/11/05 01:14:53;;;;;;;0.20;0.10;;;10.50;99.90;;;;;;20400988;29;20203;-75
2021/11/05 01:24:58;;;;;;;0.20;0.10;;;10.50;99.90;;;;;;20417204;29;20348;-75
2021/11/05 01:35:02;;;;;;;0.20;0.03;;;10.40;99.90;;;;;;20399369;29;20298;-74
2021/11/05 01:45:09;;;;;;;0.20;0.10;;;10.40;99.90;;;;;;20416401;29;20233;-75
2021/11/05 01:55:13;;;;;;;0.20;0.10;;;10.50;99.90;;;;;;20415614;29;20201;-75
2021/11/05 02:05:19;;;;;;;0.20;0.10;;;10.50;99.90;;;;;;20427028;29;20239;-75
2021/11/05 02:15:24;;;;;;;0.20;0.10;;;10.30;99.90;;;;;;20433322;29;20208;-77
2021/11/05 02:25:29;;;;;;;0.20;0.10;;;10.30;99.90;;;;;;20432293;29;20256;-77
2021/11/05 02:35:33;;;;;;;0.20;0.10;;;10.40;99.90;;;;;;20431240;29;20201;-77
2021/11/05 02:45:46;;;;;;;0.20;0.10;;;10.20;99.90;;;;;;20431916;29;20785;-78
2021/11/05 02:55:49;;;;;;;0.20;0.10;;;10.10;99.90;;;;;;20430948;29;20730;-80
2021/11/05 03:05:57;;;;;;;0.20;0.00;;;10.00;99.90;;;;;;20429890;29;20247;-81
2021/11/05 03:16:00;;;;;;;0.20;0.10;;;9.80;99.90;;;;;;20434048;29;20241;-80
2021/11/05 03:26:05;;;;;;;0.20;0.10;;;9.60;99.90;;;;;;20428815;29;20265;-78
2021/11/05 03:36:12;;;;;;;0.20;0.10;;;9.40;99.90;;;;;;20427665;29;20292;-79
2021/11/05 03:46:17;;;;;;;0.20;0.10;;;9.50;99.90;;;;;;20426128;29;20221;-78
2021/11/05 03:56:24;;;;;;;2.20;1.63;;;9.50;99.90;;;;;;20424290;29;20734;-75
2021/11/05 04:06:29;;;;;;;0.20;0.10;;;9.30;99.90;;;;;;20422971;29;20673;-77
2021/11/05 04:16:33;;;;;;;0.20;0.10;;;9.30;99.90;;;;;;20421544;29;20197;-76
2021/11/05 04:26:39;;;;;;;0.43;0.43;;;9.30;99.90;;;;;;20419982;29;20324;-77
2021/11/05 04:36:45;;;;;;;0.20;0.10;;;9.30;99.90;;;;;;20419017;29;20197;-77
2021/11/05 04:46:50;;;;;;;0.20;0.10;;;9.40;99.90;;;;;;20417692;29;20214;-78
2021/11/05 04:56:54;;;;;;;0.30;0.30;;;9.20;99.90;;;;;;20416077;29;20240;-74
2021/11/05 05:06:59;;;;;;;0.20;0.10;;;9.10;99.90;;;;;;20418335;29;20237;-75
2021/11/05 05:17:05;;;;;;;0.20;0.10;;;9.00;99.90;;;;;;20417452;29;20235;-77
2021/11/05 05:27:12;;;;;;;0.20;0.10;;;9.00;99.90;;;;;;20416298;29;20583;-75
2021/11/05 05:37:15;;;;;;;0.20;0.10;;;8.80;99.90;;;;;;20398199;29;20296;-73
2021/11/05 05:47:20;;;;;;;0.20;0.10;;;8.60;99.90;;;;;;20416078;29;20762;-73
2021/11/05 05:57:26;;;;;;;0.53;0.53;;;8.50;99.90;;;;;;20414687;29;20276;-74
2021/11/05 06:07:31;;;;;;;0.20;0.10;;;8.50;99.90;;;;;;20412692;29;20694;-75
2021/11/05 06:17:35;;;;;;;0.20;0.10;;;8.40;99.90;;;;;;20412671;29;20722;-75
2021/11/05 06:27:40;;;;;;;0.53;0.53;;;8.50;99.90;;;;;;20412507;29;20221;-76
2021/11/05 06:37:43;;;;;;;0.20;0.10;;;8.50;99.90;;;;;;20413178;29;20429;-77
2021/11/05 06:47:48;;;;;;;0.20;0.00;;;8.50;99.90;;;;;;20398343;29;20233;-76
2021/11/05 06:57:52;;;;;;;0.20;0.10;;;8.50;99.90;;;;;;20425321;29;20256;-76
2021/11/05 07:07:57;;;;;;;0.20;0.10;;;8.70;99.90;;;;;;20421187;29;20331;-72
2021/11/05 07:18:01;;;;;;;0.20;0.10;;;8.80;99.90;;;;;;20407742;29;20683;-75
2021/11/05 07:28:07;;;;;;;0.20;0.10;;;8.90;99.90;;;;;;20424214;29;20249;-76
2021/11/05 07:38:10;;;;;;;4.63;1.03;;;9.10;99.90;;;;;;20422671;29;20260;-74
2021/11/05 07:48:16;;;;;;;0.20;0.10;;;9.40;99.90;;;;;;20423091;29;20229;-77
2021/11/05 07:58:19;;;;;;;0.20;0.10;;;9.60;99.90;;;;;;20419405;29;20294;-74
2021/11/05 08:08:26;;;;;;;0.20;0.10;;;9.70;99.90;;;;;;20418910;29;20332;-78
2021/11/05 08:18:31;;;;;;;0.20;0.10;;;9.70;99.90;;;;;;20419720;29;20252;-76
2021/11/05 08:28:38;;;;;;;0.63;0.63;;;9.50;99.90;;;;;;20418118;29;20280;-73
2021/11/05 08:38:42;;;;;;;0.20;0.10;;;10.00;99.90;;;;;;20419784;29;20309;-77
2021/11/05 08:48:48;;;;;;;0.20;0.10;;;10.60;99.90;;;;;;20420275;29;20288;-76
2021/11/05 08:58:52;;;;;;;0.20;0.10;;;11.30;99.90;;;;;;20417571;29;20311;-76
2021/11/05 09:09:00;;;;;;;0.20;0.10;;;11.50;99.90;;;;;;20416547;29;20764;-78
2021/11/05 09:19:04;;;;;;;0.20;0.10;;;11.50;99.90;;;;;;20400020;29;20202;-77
2021/11/05 09:29:09;;;;;;;0.20;0.20;;;11.70;99.90;;;;;;20417475;29;20590;-80
2021/11/05 09:39:12;;;;;;;0.20;0.10;;;12.20;99.90;;;;;;20419736;29;20422;-72
2021/11/05 09:49:19;;;;;;;0.20;0.10;;;12.70;99.90;;;;;;21986585;23;20645;-72
2021/11/05 09:59:23;;;;;;;0.20;0.00;;;13.20;99.90;;;;;;20412627;29;20288;-73
2021/11/05 10:09:34;;;;;;;0.20;0.10;;;13.80;99.90;;;;;;20393561;29;20313;-74
2021/11/05 10:19:49;;;;;;;0.20;0.10;;;14.30;99.90;;;;;;20390761;29;20205;-74
2021/11/05 10:30:04;;;;;;;0.20;0.10;;;15.00;99.90;;;;;;20427084;29;20244;-74
2021/11/05 10:40:10;;;;;;;0.20;0.10;;;15.80;99.90;;;;;;20427182;29;20206;-73
2021/11/05 10:50:15;;;;;;;0.63;0.57;;;16.90;99.90;;;;;;20425854;29;20241;-76
2021/11/05 11:00:23;;;;;;;0.20;0.03;;;17.10;99.90;;;;;;20422399;29;20530;-73
2021/11/05 11:10:33;;;;;;;0.20;0.00;;;17.90;99.90;;;;;;20422748;29;20224;-72
2021/11/05 11:20:37;;;;;;;0.20;0.10;;;18.20;99.90;;;;;;20422611;29;20212;-72
2021/11/05 11:30:42;;;;;;;0.20;0.10;;;18.10;99.90;;;;;;20343591;29;20563;-73
2021/11/05 11:40:48;;;;;;;0.20;0.10;;;17.60;99.90;;;;;;20350907;29;20203;-73
2021/11/05 11:50:53;;;;;;;0.20;0.00;;;18.60;99.90;;;;;;20326266;29;20234;-73
2021/11/05 12:00:57;;;;;;;0.20;0.00;;;19.30;99.90;;;;;;20343819;29;20552;-76
2021/11/05 12:11:23;;;;;;;0.20;0.10;;;19.20;99.90;;;;;;20402935;29;20217;-73
2021/11/05 12:21:29;;;;;;;0.20;0.20;;;19.70;99.90;;;;;;20419968;29;20244;-74
2021/11/05 12:31:36;;;;;;;0.20;0.00;;;20.20;99.90;;;;;;20402062;29;20293;-74
2021/11/05 12:41:58;;;;;;;0.20;0.00;;;20.10;99.90;;;;;;20416406;29;20248;-74
2021/11/05 12:52:03;;;;;;;0.20;0.00;;;20.50;99.90;;;;;;20416576;29;20557;-74
2021/11/05 13:02:07;;;;;;;0.20;0.10;;;20.60;99.90;;;;;;20416233;29;20225;-77
2021/11/05 13:12:15;;;;;;;0.20;0.00;;;20.10;99.90;;;;;;20398782;29;20205;-76
2021/11/05 13:22:20;;;;;;;0.20;0.10;;;20.00;99.90;;;;;;20398613;29;20225;-74
2021/11/05 13:32:25;;;;;;;0.20;0.10;;;20.10;99.90;;;;;;20331512;29;20206;-75
2021/11/05 13:42:29;;;;;;;5.53;5.30;;;20.10;99.90;;;;;;20333426;29;20233;-75
2021/11/05 13:52:35;;;;;;;0.20;0.00;;;20.50;99.90;;;;;;20336407;29;20582;-74
2021/11/05 14:02:38;;;;;;;0.20;0.10;;;20.20;99.90;;;;;;20347874;29;20316;-75
2021/11/05 14:12:43;;;;;;;1.10;1.10;;;19.60;99.90;;;;;;20353266;29;20281;-75
2021/11/05 14:22:47;;;;;;;0.20;0.10;;;19.00;99.90;;;;;;20353950;29;20224;-76
2021/11/05 14:32:54;;;;;;;0.20;0.10;;;19.40;99.90;;;;;;20428436;29;20202;-75
2021/11/05 14:43:04;;;;;;;0.20;0.00;;;19.30;99.90;;;;;;20424874;29;20225;-74
2021/11/05 14:53:11;;;;;;;0.20;0.10;;;20.50;99.90;;;;;;20422455;29;20228;-75
2021/11/05 15:03:23;;;;;;;0.20;0.10;;;20.20;99.90;;;;;;20420032;29;20782;-76
2021/11/05 15:13:29;;;;;;;0.20;0.07;;;19.00;99.90;;;;;;20419345;29;20272;-72
2021/11/05 15:23:33;;;;;;;0.20;0.10;;;17.40;99.90;;;;;;20386877;29;20766;-77
2021/11/05 15:33:38;;;;;;;0.20;0.10;;;16.70;99.90;;;;;;20404212;29;20284;-76
2021/11/05 15:43:42;;;;;;;0.20;0.00;;;16.10;99.90;;;;;;20419349;29;20556;-76
2021/11/05 15:53:47;;;;;;;0.20;0.10;;;15.70;99.90;;;;;;20415387;29;20224;-75
2021/11/05 16:03:51;;;;;;;0.20;0.10;;;15.20;99.90;;;;;;20416987;29;20239;-75
2021/11/05 16:13:57;;;;;;;0.20;0.00;;;15.20;99.90;;;;;;20398637;29;20667;-74
2021/11/05 16:24:01;;;;;;;0.20;0.10;;;14.80;99.90;;;;;;20414827;29;20337;-75
2021/11/05 16:34:06;;;;;;;0.20;0.10;;;14.40;99.90;;;;;;20396056;29;20197;-75
2021/11/05 16:44:10;;;;;;;0.20;0.10;;;13.90;99.90;;;;;;20413460;29;20253;-75
2021/11/05 16:54:17;;;;;;;0.20;0.00;;;13.70;99.90;;;;;;20409997;29;20258;-73
2021/11/05 17:04:20;;;;;;;0.20;0.00;;;13.40;99.90;;;;;;20413581;29;20229;-73
2021/11/05 17:14:25;;;;;;;0.20;0.10;;;13.00;99.90;;;;;;20415531;29;20727;-74
2021/11/05 17:24:30;;;;;;;0.20;0.07;;;12.70;99.90;;;;;;20415151;29;20610;-76
2021/11/05 17:34:35;;;;;;;0.20;0.10;;;12.50;99.90;;;;;;20411158;29;20206;-73
2021/11/05 17:44:40;;;;;;;0.20;0.10;;;12.40;99.90;;;;;;20410710;29;20233;-73
2021/11/05 17:54:45;;;;;;;0.20;0.10;;;12.20;99.90;;;;;;20413282;29;20614;-75
2021/11/05 18:04:49;;;;;;;0.20;0.10;;;12.00;99.90;;;;;;20410069;29;20751;-73
2021/11/05 18:14:54;;;;;;;0.20;0.10;;;11.80;99.90;;;;;;20410925;29;20289;-74
2021/11/05 18:24:59;;;;;;;0.20;0.10;;;12.00;99.90;;;;;;20408612;29;20663;-74
2021/11/05 18:35:06;;;;;;;0.20;0.10;;;12.40;99.90;;;;;;20430658;28;20328;-72
2021/11/05 18:45:15;;;;;;;0.20;0.10;;;12.10;99.90;;;;;;20398208;29;20232;-73
2021/11/05 18:55:21;;;;;;;0.20;0.10;;;12.30;99.90;;;;;;20405193;29;20316;-73
2021/11/05 19:05:31;;;;;;;0.20;0.10;;;12.30;99.90;;;;;;20429280;28;20220;-73
2021/11/05 19:15:36;;;;;;;0.20;0.10;;;12.10;99.90;;;;;;20420297;28;20260;-75
2021/11/05 19:25:40;;;;;;;0.20;0.10;;;12.00;99.90;;;;;;20422961;29;20847;-72
2021/11/05 19:35:46;;;;;;;0.20;0.10;;;11.90;99.90;;;;;;20419896;29;20194;-73
2021/11/05 19:45:49;;;;;;;0.20;0.10;;;11.80;99.90;;;;;;20419083;29;20312;-74
2021/11/05 19:55:54;;;;;;;0.20;0.10;;;11.50;99.90;;;;;;20414070;29;20229;-72
2021/11/05 20:05:58;;;;;;;0.20;0.20;;;11.30;99.90;;;;;;20417076;29;20584;-74
2021/11/05 20:16:03;;;;;;;0.20;0.10;;;11.30;99.90;;;;;;20416796;29;20288;-71
2021/11/05 20:26:07;;;;;;;0.20;0.10;;;11.00;99.90;;;;;;20439763;28;20368;-73
2021/11/05 20:36:12;;;;;;;0.20;0.10;;;10.80;99.90;;;;;;20438309;28;20205;-72
2021/11/05 20:46:17;;;;;;;0.20;0.10;;;10.70;99.90;;;;;;20413323;29;20264;-72
2021/11/05 20:56:22;;;;;;;0.20;0.10;;;10.60;99.90;;;;;;20414572;29;20313;-73
2021/11/05 21:06:25;;;;;;;0.20;0.10;;;10.20;99.90;;;;;;20413000;29;20329;-72
2021/11/05 21:16:30;;;;;;;0.20;0.10;;;10.10;99.90;;;;;;20412732;29;20209;-72
2021/11/05 21:26:34;;;;;;;0.20;0.10;;;10.20;99.90;;;;;;20411875;29;20230;-72
2021/11/05 21:36:40;;;;;;;0.20;0.10;;;10.20;99.90;;;;;;20411062;29;20201;-73
2021/11/05 21:46:44;;;;;;;0.20;0.13;;;10.00;99.90;;;;;;20410902;29;20225;-72
2021/11/05 21:56:49;;;;;;;0.20;0.10;;;10.00;99.90;;;;;;20334198;29;20556;-72
2021/11/05 22:06:53;;;;;;;0.20;0.10;;;10.00;99.90;;;;;;20332705;29;20229;-74
2021/11/05 22:16:58;;;;;;;0.20;0.10;;;9.80;99.90;;;;;;20333365;29;20202;-74
2021/11/05 22:27:01;;;;;;;0.20;0.10;;;10.00;99.90;;;;;;20333089;29;20232;-74
2021/11/05 22:37:07;;;;;;;0.20;0.10;;;10.20;99.90;;;;;;20333032;29;20228;-72
2021/11/05 22:47:11;;;;;;;0.20;0.10;;;9.80;99.90;;;;;;20350145;29;20226;-72
2021/11/05 22:57:16;;;;;;;0.20;0.10;;;9.50;99.90;;;;;;20409948;29;20204;-72
2021/11/05 23:07:20;;;;;;;0.20;0.10;;;9.60;99.90;;;;;;20426806;29;20229;-72
2021/11/05 23:17:25;;;;;;;0.20;0.10;;;9.70;99.90;;;;;;20425141;29;20401;-72
2021/11/05 23:27:30;;;;;;;0.20;0.10;;;9.50;99.90;;;;;;20423854;29;20282;-72
2021/11/05 23:37:36;;;;;;;0.20;0.10;;;9.40;99.90;;;;;;20422123;29;20217;-72
2021/11/05 23:47:39;;;;;;;0.20;0.10;;;9.40;99.90;;;;;;20418734;29;20265;-73
2021/11/05 23:57:44;;;;;;;0.20;0.10;;;9.20;99.90;;;;;;20344488;29;20289;-72
